createdAt,value
2018-09-12T00:11:25.867Z,39.9
2018-09-12T00:26:44.788Z,42.5
2018-09-12T00:41:50.140Z,43
2018-09-12T00:57:20.208Z,43.6
2018-09-12T01:12:38.024Z,43.5
2018-09-12T01:27:55.519Z,44.9
2018-09-12T01:43:13.170Z,45.1
2018-09-12T01:58:25.359Z,46.1
2018-09-12T02:13:48.477Z,46.7
2018-09-12T02:29:05.513Z,47.3
2018-09-12T02:44:23.594Z,48
2018-09-12T02:59:30.324Z,48
2018-09-12T03:14:58.426Z,49.9
2018-09-12T03:30:14.391Z,50
2018-09-12T03:45:31.540Z,50
2018-09-12T04:00:48.633Z,51
2018-09-12T04:16:01.671Z,52.4
2018-09-12T04:31:22.325Z,53.3
2018-09-12T04:46:38.915Z,53.5
2018-09-12T05:01:55.644Z,53.6
2018-09-12T05:17:03.150Z,54
2018-09-12T05:32:29.396Z,53.7
2018-09-12T05:47:45.939Z,53.6
2018-09-12T06:03:02.876Z,51.5
2018-09-12T06:18:06.992Z,43.2
2018-09-12T06:33:37.213Z,38.4
2018-09-12T06:48:54.926Z,35.5
2018-09-12T07:04:15.013Z,33.4
2018-09-12T07:19:30.669Z,31.7
2018-09-12T07:34:49.126Z,31.3
2018-09-12T07:50:08.568Z,31.5
2018-09-12T08:05:18.749Z,30.9
2018-09-12T08:20:48.303Z,29.9
2018-09-12T08:36:07.544Z,26.3
2018-09-12T08:51:28.047Z,23
2018-09-12T09:06:37.088Z,22.1
2018-09-12T09:22:10.765Z,21
2018-09-12T09:37:32.256Z,20.3
2018-09-12T09:52:54.143Z,20.5
2018-09-12T10:08:15.756Z,19.9
2018-09-12T10:23:30.216Z,18.5
2018-09-12T10:39:00.272Z,17.6
2018-09-12T10:54:22.635Z,16.8
2018-09-12T11:09:45.524Z,16.7
2018-09-12T11:24:49.733Z,15.9
2018-09-12T11:40:25.459Z,15.3
2018-09-12T11:55:54.707Z,15.8
2018-09-12T12:11:18.333Z,14.8
2018-09-12T12:26:42.549Z,14.8
2018-09-12T12:41:47.988Z,14.5
2018-09-12T12:57:25.029Z,13.9
2018-09-12T13:12:55.812Z,13.4
2018-09-12T13:28:21.354Z,12.6
2018-09-12T13:43:45.227Z,12.4
2018-09-12T13:58:49.340Z,12.5
2018-09-12T14:14:26.269Z,12.4
2018-09-12T14:30:00.336Z,12.9
2018-09-12T14:45:25.039Z,13.5
2018-09-12T15:00:50.087Z,13.2
2018-09-12T15:16:15.087Z,13
2018-09-12T15:31:26.907Z,13.8
2018-09-12T15:47:03.392Z,14
2018-09-12T16:02:29.367Z,13.9
2018-09-12T16:17:53.794Z,14.1
2018-09-12T16:33:18.395Z,14.3
2018-09-12T16:48:25.701Z,15.1
2018-09-12T17:04:01.060Z,15.5
2018-09-12T17:19:32.203Z,16.9
2018-09-12T17:34:55.685Z,18.3
2018-09-12T17:50:18.042Z,19.4
2018-09-12T18:05:40.274Z,20.7
2018-09-12T18:20:52.132Z,22.6
2018-09-12T18:36:22.780Z,24.6
2018-09-12T18:51:43.288Z,25.5
2018-09-12T19:07:05.724Z,27.1
2018-09-12T19:22:25.549Z,28.5
2018-09-12T19:37:35.369Z,30.4
2018-09-12T19:53:04.974Z,37
2018-09-12T20:08:24.056Z,39.1
2018-09-12T20:23:44.577Z,40.6
2018-09-12T20:39:02.057Z,48
2018-09-12T20:54:14.970Z,50.8
2018-09-12T21:09:41.238Z,53.2
2018-09-12T21:25:00.359Z,53.7
2018-09-12T21:40:18.060Z,54.4
2018-09-12T21:55:36.802Z,55.3
2018-09-12T22:10:52.590Z,56.8
2018-09-12T22:26:13.594Z,57.2
2018-09-12T22:41:32.050Z,57.8
2018-09-12T22:56:50.574Z,60
2018-09-12T23:11:56.733Z,62.8
2018-09-12T23:27:26.529Z,64.1
2018-09-12T23:42:44.602Z,65.6
2018-09-12T23:58:01.904Z,67.5
